createdAt,value
2018-06-05T00:00:27.518Z,19.75
2018-06-05T00:01:27.501Z,19.84
2018-06-05T00:02:27.500Z,19.74
2018-06-05T00:03:27.484Z,19.75
2018-06-05T00:04:27.472Z,19.68
2018-06-05T00:05:27.517Z,19.77
2018-06-05T00:06:27.453Z,19.67
2018-06-05T00:07:27.439Z,19.72
2018-06-05T00:08:27.427Z,19.72
2018-06-05T00:09:27.414Z,19.75
2018-06-05T00:10:27.401Z,19.86
2018-06-05T00:11:27.393Z,19.79
2018-06-05T00:12:27.376Z,19.89
2018-06-05T00:13:27.371Z,19.87
2018-06-05T00:14:27.377Z,19.87
2018-06-05T00:15:27.344Z,19.94
2018-06-05T00:16:27.342Z,19.89
2018-06-05T00:17:27.315Z,19.84
2018-06-05T00:18:27.309Z,19.81
2018-06-05T00:19:27.297Z,19.67
2018-06-05T00:20:27.289Z,19.64
2018-06-05T00:21:27.276Z,19.63
2018-06-05T00:22:27.260Z,19.63
2018-06-05T00:23:27.254Z,19.60
2018-06-05T00:24:27.241Z,19.68
2018-06-05T00:25:27.226Z,19.64
2018-06-05T00:26:27.225Z,19.63
2018-06-05T00:27:27.203Z,19.56
2018-06-05T00:28:27.191Z,19.53
2018-06-05T00:29:27.188Z,19.53
2018-06-05T00:30:27.171Z,19.49
2018-06-05T00:31:27.165Z,19.45
2018-06-05T00:32:27.147Z,19.52
2018-06-05T00:33:27.132Z,19.54
2018-06-05T00:34:27.126Z,19.54
2018-06-05T00:35:27.112Z,19.56
2018-06-05T00:36:27.107Z,19.49
2018-06-05T00:37:27.091Z,19.68
2018-06-05T00:38:27.078Z,19.49
2018-06-05T00:39:27.059Z,19.62
2018-06-05T00:40:27.065Z,19.50
2018-06-05T00:41:27.052Z,19.47
2018-06-05T00:42:27.030Z,19.50
2018-06-05T00:43:27.018Z,19.54
2018-06-05T00:44:27.004Z,19.38
2018-06-05T00:45:27.004Z,19.47
2018-06-05T00:46:26.986Z,19.42
2018-06-05T00:47:26.984Z,19.44
2018-06-05T00:48:26.961Z,19.37
2018-06-05T00:49:26.951Z,19.26
2018-06-05T00:50:26.941Z,19.16
2018-06-05T00:51:26.929Z,19.13
2018-06-05T00:52:26.913Z,19.15
2018-06-05T00:53:26.906Z,19.15
2018-06-05T00:54:26.894Z,19.20
2018-06-05T00:55:26.881Z,19.12
2018-06-05T00:56:26.868Z,19.08
2018-06-05T00:57:26.852Z,18.96
2018-06-05T00:58:26.845Z,19.04
2018-06-05T00:59:26.833Z,18.93
2018-06-05T01:00:26.816Z,18.88
2018-06-05T01:01:26.807Z,19.07
2018-06-05T01:02:26.801Z,19.12
2018-06-05T01:03:26.785Z,19.22
2018-06-05T01:04:26.776Z,19.13
2018-06-05T01:05:26.760Z,19.20
2018-06-05T01:06:26.757Z,19.31
2018-06-05T01:07:26.734Z,19.22
2018-06-05T01:08:26.782Z,19.26
2018-06-05T01:09:26.710Z,19.08
2018-06-05T01:10:26.706Z,19.17
2018-06-05T01:11:26.686Z,19.12
2018-06-05T01:12:26.674Z,19.16
2018-06-05T01:13:26.670Z,19.19
2018-06-05T01:14:26.660Z,19.27
2018-06-05T01:15:26.651Z,19.15
2018-06-05T01:16:26.632Z,19.17
2018-06-05T01:17:26.616Z,19.23
2018-06-05T01:18:26.609Z,19.16
2018-06-05T01:19:26.599Z,19.08
2018-06-05T01:20:26.594Z,19.05
2018-06-05T01:21:26.573Z,19.00
2018-06-05T01:22:26.559Z,18.93
2018-06-05T01:23:26.540Z,18.96
2018-06-05T01:24:26.542Z,18.96
2018-06-05T01:25:26.526Z,18.91
2018-06-05T01:26:26.509Z,18.97
2018-06-05T01:27:26.497Z,18.91
2018-06-05T01:28:26.487Z,18.93
2018-06-05T01:29:26.476Z,18.89
2018-06-05T01:30:26.466Z,18.93
2018-06-05T01:31:26.453Z,18.91
2018-06-05T01:32:26.442Z,18.94
2018-06-05T01:33:26.428Z,18.96
2018-06-05T01:34:26.416Z,18.93
2018-06-05T01:35:26.409Z,18.79
2018-06-05T01:36:26.399Z,18.82
2018-06-05T01:37:26.376Z,18.76
2018-06-05T01:38:26.366Z,18.71
2018-06-05T01:39:26.367Z,18.82
2018-06-05T01:40:26.350Z,18.81
2018-06-05T01:41:26.341Z,18.81
2018-06-05T01:42:26.320Z,18.86
2018-06-05T01:43:26.312Z,18.88
2018-06-05T01:44:26.295Z,18.85
2018-06-05T01:45:26.289Z,18.93
2018-06-05T01:46:26.273Z,18.96
2018-06-05T01:47:26.265Z,18.86
2018-06-05T01:48:26.252Z,18.79
2018-06-05T01:49:26.306Z,18.83
2018-06-05T01:50:26.232Z,18.78
2018-06-05T01:51:26.209Z,18.82
2018-06-05T01:52:26.207Z,18.79
2018-06-05T01:53:26.196Z,18.79
2018-06-05T01:54:26.177Z,18.86
2018-06-05T01:55:26.171Z,18.78
2018-06-05T01:56:26.151Z,18.74
2018-06-05T01:57:26.142Z,18.67
2018-06-05T01:58:26.136Z,18.67
2018-06-05T01:59:26.112Z,18.61
2018-06-05T02:00:26.109Z,18.67
2018-06-05T02:01:26.195Z,18.75
2018-06-05T02:02:26.087Z,18.81
2018-06-05T02:03:26.062Z,18.61
2018-06-05T02:04:26.061Z,18.67
2018-06-05T02:05:26.056Z,18.61
2018-06-05T02:06:26.040Z,18.66
2018-06-05T02:07:26.017Z,18.52
2018-06-05T02:08:26.005Z,18.54
2018-06-05T02:09:25.996Z,18.54
2018-06-05T02:10:25.987Z,18.54
2018-06-05T02:11:25.974Z,18.54
2018-06-05T02:12:25.955Z,18.54
2018-06-05T02:13:25.948Z,18.46
2018-06-05T02:14:25.939Z,18.46
2018-06-05T02:15:25.930Z,18.48
2018-06-05T02:16:25.907Z,18.54
2018-06-05T02:17:25.901Z,18.56
2018-06-05T02:18:25.885Z,18.52
2018-06-05T02:19:25.876Z,18.60
2018-06-05T02:20:25.863Z,18.60
2018-06-05T02:21:25.851Z,18.63
2018-06-05T02:22:25.838Z,18.63
2018-06-05T02:23:25.830Z,18.52
2018-06-05T02:24:25.814Z,18.46
2018-06-05T02:25:25.836Z,18.42
2018-06-05T02:26:25.791Z,18.46
2018-06-05T02:27:25.776Z,18.30
2018-06-05T02:28:25.766Z,18.30
2018-06-05T02:29:25.753Z,18.31
2018-06-05T02:30:25.741Z,18.33
2018-06-05T02:31:25.730Z,18.36
2018-06-05T02:32:25.721Z,18.34
2018-06-05T02:33:25.706Z,18.46
2018-06-05T02:34:25.694Z,18.48
2018-06-05T02:35:25.681Z,18.48
2018-06-05T02:36:25.660Z,18.45
2018-06-05T02:37:25.657Z,18.41
2018-06-05T02:38:25.642Z,18.48
2018-06-05T02:39:25.632Z,18.45
2018-06-05T02:40:25.623Z,18.51
2018-06-05T02:41:25.609Z,18.51
2018-06-05T02:42:25.593Z,18.52
2018-06-05T02:43:25.579Z,18.58
2018-06-05T02:44:25.574Z,18.60
2018-06-05T02:45:25.561Z,18.43
2018-06-05T02:46:25.551Z,18.56
2018-06-05T02:47:25.534Z,18.48
2018-06-05T02:48:25.559Z,18.48
2018-06-05T02:49:25.508Z,18.54
2018-06-05T02:50:25.494Z,18.51
2018-06-05T02:51:25.482Z,18.43
2018-06-05T02:52:25.468Z,18.43
2018-06-05T02:53:25.458Z,18.41
2018-06-05T02:54:25.452Z,18.43
2018-06-05T02:55:25.425Z,18.43
2018-06-05T02:56:25.417Z,18.39
2018-06-05T02:57:25.410Z,18.42
2018-06-05T02:58:25.399Z,18.38
2018-06-05T02:59:25.390Z,18.46
2018-06-05T03:00:25.381Z,18.45
2018-06-05T03:01:25.362Z,18.34
2018-06-05T03:02:25.414Z,18.31
2018-06-05T03:03:25.331Z,18.27
2018-06-05T03:04:25.326Z,18.34
2018-06-05T03:05:25.311Z,18.42
2018-06-05T03:06:25.301Z,18.31
2018-06-05T03:07:25.291Z,18.39
2018-06-05T03:08:25.275Z,18.36
2018-06-05T03:09:25.254Z,18.45
2018-06-05T03:10:25.443Z,18.34
2018-06-05T03:11:25.240Z,18.42
2018-06-05T03:12:25.224Z,18.38
2018-06-05T03:13:25.221Z,18.45
2018-06-05T03:14:25.300Z,18.46
2018-06-05T03:15:25.191Z,18.39
2018-06-05T03:16:25.178Z,18.52
2018-06-05T03:17:25.160Z,18.56
2018-06-05T03:18:25.175Z,18.61
2018-06-05T03:19:25.136Z,18.61
2018-06-05T03:21:25.112Z,18.54
2018-06-05T03:22:25.105Z,18.39
2018-06-05T03:23:25.091Z,18.48
2018-06-05T03:24:25.136Z,18.43
2018-06-05T03:25:25.063Z,18.45
2018-06-05T03:26:25.048Z,18.36
2018-06-05T03:27:25.035Z,18.45
2018-06-05T03:28:25.029Z,18.51
2018-06-05T03:29:25.021Z,18.41
2018-06-05T03:30:25.048Z,18.36
2018-06-05T03:31:24.990Z,18.45
2018-06-05T03:32:25.031Z,18.39
2018-06-05T03:33:24.968Z,18.38
2018-06-05T03:34:24.951Z,18.23
2018-06-05T03:35:24.941Z,18.24
2018-06-05T03:36:24.932Z,18.27
2018-06-05T03:37:24.920Z,18.23
2018-06-05T03:38:24.912Z,18.26
2018-06-05T03:39:24.887Z,18.26
2018-06-05T03:40:24.874Z,18.20
2018-06-05T03:41:24.865Z,18.21
2018-06-05T03:42:24.849Z,18.26
2018-06-05T03:43:24.843Z,18.24
2018-06-05T03:44:24.826Z,18.28
2018-06-05T03:45:24.817Z,18.30
2018-06-05T03:46:24.797Z,18.43
2018-06-05T03:47:24.792Z,18.41
2018-06-05T03:48:24.779Z,18.43
2018-06-05T03:49:24.779Z,18.46
2018-06-05T03:50:24.757Z,18.43
2018-06-05T03:51:24.751Z,18.46
2018-06-05T03:52:24.731Z,18.38
2018-06-05T03:53:24.721Z,18.33
2018-06-05T03:54:24.709Z,18.41
2018-06-05T03:55:24.692Z,18.33
2018-06-05T03:56:24.680Z,18.43
2018-06-05T03:57:24.662Z,18.39
2018-06-05T03:58:24.659Z,18.31
2018-06-05T03:59:24.638Z,18.21
2018-06-05T04:00:24.631Z,18.21
2018-06-05T04:01:24.619Z,18.21
2018-06-05T04:02:24.599Z,18.23
2018-06-05T04:03:24.591Z,18.23
2018-06-05T04:04:24.604Z,18.21
2018-06-05T04:05:24.572Z,18.08
2018-06-05T04:06:24.556Z,18.18
2018-06-05T04:07:24.540Z,18.17
2018-06-05T04:08:24.523Z,18.24
2018-06-05T04:09:24.517Z,18.24
2018-06-05T04:10:24.512Z,18.27
2018-06-05T04:11:24.491Z,18.28
2018-06-05T04:12:24.482Z,18.27
2018-06-05T04:13:24.462Z,18.28
2018-06-05T04:14:24.446Z,18.28
2018-06-05T04:15:24.436Z,18.30
2018-06-05T04:16:24.427Z,18.33
2018-06-05T04:17:24.417Z,18.28
2018-06-05T04:18:24.416Z,18.30
2018-06-05T04:19:24.387Z,18.38
2018-06-05T04:20:24.382Z,18.42
2018-06-05T04:21:24.358Z,18.30
2018-06-05T04:22:24.356Z,18.33
2018-06-05T04:23:24.342Z,18.28
2018-06-05T04:24:24.329Z,18.34
2018-06-05T04:25:24.320Z,18.30
2018-06-05T04:26:24.300Z,18.41
2018-06-05T04:27:24.295Z,18.42
2018-06-05T04:28:24.277Z,18.42
2018-06-05T04:29:24.267Z,18.36
2018-06-05T04:30:24.253Z,18.33
2018-06-05T04:31:24.233Z,18.41
2018-06-05T04:32:24.227Z,18.39
2018-06-05T04:33:24.212Z,18.28
2018-06-05T04:34:24.201Z,18.28
2018-06-05T04:35:24.187Z,18.24
2018-06-05T04:36:24.174Z,18.18
2018-06-05T04:37:24.165Z,18.15
2018-06-05T04:38:24.153Z,18.12
2018-06-05T04:39:24.136Z,18.13
2018-06-05T04:40:24.124Z,18.05
2018-06-05T04:41:24.114Z,18.01
2018-06-05T04:42:24.102Z,17.88
2018-06-05T04:43:24.090Z,17.87
2018-06-05T04:44:24.075Z,17.87
2018-06-05T04:45:24.058Z,17.79
2018-06-05T04:46:24.051Z,17.81
2018-06-05T04:47:24.038Z,17.90
2018-06-05T04:48:24.024Z,18.06
2018-06-05T04:49:24.015Z,18.03
2018-06-05T04:50:24.002Z,18.11
2018-06-05T04:51:23.984Z,18.13
2018-06-05T04:52:23.971Z,18.21
2018-06-05T04:53:23.958Z,18.17
2018-06-05T04:54:23.952Z,18.15
2018-06-05T04:55:23.932Z,18.13
2018-06-05T04:56:23.918Z,18.13
2018-06-05T04:57:23.907Z,18.23
2018-06-05T04:58:23.894Z,18.15
2018-06-05T04:59:23.883Z,18.30
2018-06-05T05:00:23.871Z,18.31
2018-06-05T05:01:23.852Z,18.20
2018-06-05T05:02:23.843Z,18.27
2018-06-05T05:03:23.848Z,18.28
2018-06-05T05:04:23.818Z,18.43
2018-06-05T05:05:23.808Z,18.36
2018-06-05T05:06:23.801Z,18.38
2018-06-05T05:07:23.784Z,18.42
2018-06-05T05:08:23.769Z,18.38
2018-06-05T05:09:23.759Z,18.34
2018-06-05T05:10:23.746Z,18.36
2018-06-05T05:11:23.727Z,18.30
2018-06-05T05:12:23.717Z,18.30
2018-06-05T05:13:23.701Z,18.23
2018-06-05T05:14:23.701Z,18.26
2018-06-05T05:15:23.683Z,18.24
2018-06-05T05:16:23.704Z,18.28
2018-06-05T05:17:23.657Z,18.12
2018-06-05T05:18:23.643Z,18.15
2018-06-05T05:19:23.628Z,18.05
2018-06-05T05:20:23.618Z,17.97
2018-06-05T05:21:23.601Z,17.75
2018-06-05T05:22:23.589Z,17.83
2018-06-05T05:23:23.620Z,17.83
2018-06-05T05:24:23.558Z,17.88
2018-06-05T05:25:23.551Z,17.90
2018-06-05T05:26:23.537Z,17.86
2018-06-05T05:27:23.533Z,17.90
2018-06-05T05:28:23.519Z,17.86
2018-06-05T05:29:23.505Z,17.93
2018-06-05T05:30:23.497Z,17.84
2018-06-05T05:31:23.476Z,17.84
2018-06-05T05:32:23.457Z,17.86
2018-06-05T05:33:23.447Z,17.87
2018-06-05T05:34:23.440Z,17.84
2018-06-05T05:35:23.422Z,17.87
2018-06-05T05:36:23.417Z,17.90
2018-06-05T05:37:23.402Z,17.99
2018-06-05T05:38:23.382Z,18.02
2018-06-05T05:39:23.367Z,18.03
2018-06-05T05:40:23.357Z,18.06
2018-06-05T05:41:23.351Z,18.12
2018-06-05T05:42:23.331Z,18.03
2018-06-05T05:43:23.317Z,18.13
2018-06-05T05:44:23.309Z,18.03
2018-06-05T05:45:23.293Z,18.02
2018-06-05T05:46:23.289Z,18.12
2018-06-05T05:47:23.271Z,18.13
2018-06-05T05:48:23.262Z,18.18
2018-06-05T05:49:23.248Z,18.21
2018-06-05T05:50:23.227Z,18.21
2018-06-05T05:51:23.216Z,18.20
2018-06-05T05:52:23.207Z,18.27
2018-06-05T05:53:23.191Z,18.23
2018-06-05T05:54:23.174Z,18.30
2018-06-05T05:55:23.164Z,18.36
2018-06-05T05:56:23.156Z,18.24
2018-06-05T05:57:23.143Z,18.17
2018-06-05T05:58:23.130Z,18.23
2018-06-05T05:59:23.115Z,18.24
2018-06-05T06:00:23.104Z,18.12
2018-06-05T06:01:23.089Z,18.15
2018-06-05T06:02:23.078Z,18.12
2018-06-05T06:03:23.066Z,18.23
2018-06-05T06:04:23.047Z,18.21
2018-06-05T06:05:23.034Z,18.13
2018-06-05T06:06:23.033Z,18.23
2018-06-05T06:07:23.015Z,18.27
2018-06-05T06:08:23.001Z,18.20
2018-06-05T06:09:22.991Z,18.26
2018-06-05T06:10:22.976Z,18.33
2018-06-05T06:11:22.962Z,18.28
2018-06-05T06:12:22.943Z,18.39
2018-06-05T06:13:22.931Z,18.42
2018-06-05T06:14:22.928Z,18.30
2018-06-05T06:15:22.911Z,18.21
2018-06-05T06:16:22.895Z,18.18
2018-06-05T06:17:22.889Z,18.15
2018-06-05T06:18:22.873Z,18.18
2018-06-05T06:19:22.857Z,18.26
2018-06-05T06:20:22.850Z,18.23
2018-06-05T06:21:22.834Z,18.26
2018-06-05T06:22:22.819Z,18.24
2018-06-05T06:23:22.810Z,18.17
2018-06-05T06:24:22.801Z,18.28
2018-06-05T06:25:22.781Z,18.28
2018-06-05T06:26:22.770Z,18.28
2018-06-05T06:27:22.757Z,18.41
2018-06-05T06:28:22.741Z,18.34
2018-06-05T06:29:22.741Z,18.46
2018-06-05T06:30:22.725Z,18.33
2018-06-05T06:31:22.713Z,18.42
2018-06-05T06:32:22.696Z,18.42
2018-06-05T06:33:22.687Z,18.42
2018-06-05T06:34:22.676Z,18.39
2018-06-05T06:35:22.661Z,18.34
2018-06-05T06:36:22.748Z,18.45
2018-06-05T06:37:22.629Z,18.46
2018-06-05T06:38:22.622Z,18.42
2018-06-05T06:39:22.607Z,18.39
2018-06-05T06:40:22.594Z,18.45
2018-06-05T06:41:22.578Z,18.52
2018-06-05T06:42:22.572Z,18.57
2018-06-05T06:43:22.566Z,18.63
2018-06-05T06:44:22.546Z,18.60
2018-06-05T06:45:22.536Z,18.64
2018-06-05T06:46:22.527Z,18.60
2018-06-05T06:47:22.508Z,18.60
2018-06-05T06:48:22.499Z,18.60
2018-06-05T06:49:22.537Z,18.58
2018-06-05T06:50:22.476Z,18.71
2018-06-05T06:51:22.462Z,18.68
2018-06-05T06:52:22.449Z,18.79
2018-06-05T06:53:22.438Z,18.74
2018-06-05T06:54:22.421Z,18.74
2018-06-05T06:55:22.480Z,18.74
2018-06-05T06:56:22.395Z,18.74
2018-06-05T06:57:22.530Z,18.70
2018-06-05T06:58:22.367Z,18.70
2018-06-05T06:59:22.399Z,18.68
2018-06-05T07:00:22.345Z,18.71
2018-06-05T07:01:22.350Z,18.68
2018-06-05T07:02:22.323Z,18.74
2018-06-05T07:03:22.307Z,18.70
2018-06-05T07:04:22.290Z,18.67
2018-06-05T07:05:22.287Z,18.63
2018-06-05T07:06:22.273Z,18.56
2018-06-05T07:07:22.262Z,18.52
2018-06-05T07:08:22.253Z,18.60
2018-06-05T07:09:22.240Z,18.52
2018-06-05T07:10:22.223Z,18.48
2018-06-05T07:11:22.216Z,18.52
2018-06-05T07:12:22.237Z,18.54
2018-06-05T07:13:22.190Z,18.54
2018-06-05T07:14:22.183Z,18.54
2018-06-05T07:15:22.169Z,18.54
2018-06-05T07:16:22.147Z,18.52
2018-06-05T07:17:22.137Z,18.54
2018-06-05T07:18:22.169Z,18.56
2018-06-05T07:19:22.112Z,18.61
2018-06-05T07:20:22.102Z,18.60
2018-06-05T07:21:22.093Z,18.60
2018-06-05T07:22:22.077Z,18.68
2018-06-05T07:23:22.064Z,18.71
2018-06-05T07:24:22.051Z,18.74
2018-06-05T07:25:22.043Z,18.75
2018-06-05T07:26:22.033Z,18.75
2018-06-05T07:27:22.019Z,18.60
2018-06-05T07:28:22.006Z,18.63
2018-06-05T07:29:21.992Z,18.56
2018-06-05T07:30:21.987Z,18.63
2018-06-05T07:31:21.966Z,18.57
2018-06-05T07:32:21.952Z,18.66
2018-06-05T07:33:21.953Z,18.57
2018-06-05T07:34:21.928Z,18.63
2018-06-05T07:35:21.918Z,18.66
2018-06-05T07:36:21.915Z,18.75
2018-06-05T07:37:21.896Z,18.68
2018-06-05T07:38:21.880Z,18.76
2018-06-05T07:39:21.876Z,18.83
2018-06-05T07:40:21.856Z,18.70
2018-06-05T07:41:21.854Z,18.75
2018-06-05T07:42:21.831Z,18.78
2018-06-05T07:43:21.822Z,18.81
2018-06-05T07:44:21.840Z,18.88
2018-06-05T07:45:21.801Z,18.94
2018-06-05T07:46:21.790Z,18.91
2018-06-05T07:47:21.784Z,18.94
2018-06-05T07:48:21.759Z,18.89
2018-06-05T07:49:21.750Z,18.93
2018-06-05T07:50:21.737Z,18.96
2018-06-05T07:51:21.732Z,19.00
2018-06-05T07:52:21.715Z,18.94
2018-06-05T07:53:21.705Z,18.82
2018-06-05T07:54:21.692Z,18.85
2018-06-05T07:55:21.738Z,18.75
2018-06-05T07:56:21.677Z,18.70
2018-06-05T07:57:21.654Z,18.43
2018-06-05T07:58:21.644Z,18.43
2018-06-05T07:59:21.636Z,18.52
2018-06-05T08:00:21.622Z,18.60
2018-06-05T08:01:21.617Z,18.68
2018-06-05T08:02:21.607Z,18.78
2018-06-05T08:03:21.592Z,18.76
2018-06-05T08:04:21.617Z,18.94
2018-06-05T08:05:21.563Z,18.96
2018-06-05T08:06:21.547Z,19.00
2018-06-05T08:07:21.578Z,19.16
2018-06-05T08:08:21.524Z,19.09
2018-06-05T08:09:21.514Z,19.26
2018-06-05T08:10:21.504Z,19.17
2018-06-05T08:11:21.490Z,19.16
2018-06-05T08:12:21.473Z,19.17
2018-06-05T08:13:21.470Z,19.23
2018-06-05T08:14:21.521Z,19.27
2018-06-05T08:15:21.448Z,19.23
2018-06-05T08:16:21.537Z,19.23
2018-06-05T08:17:21.412Z,19.26
2018-06-05T08:18:21.493Z,19.30
2018-06-05T08:19:21.402Z,19.31
2018-06-05T08:20:21.380Z,19.38
2018-06-05T08:21:21.374Z,19.38
2018-06-05T08:22:21.362Z,19.38
2018-06-05T08:23:21.349Z,19.42
2018-06-05T08:24:21.356Z,19.50
2018-06-05T08:25:21.332Z,19.52
2018-06-05T08:26:21.310Z,19.30
2018-06-05T08:27:21.303Z,19.32
2018-06-05T08:28:21.302Z,19.31
2018-06-05T08:29:21.279Z,19.41
2018-06-05T08:30:21.261Z,19.45
2018-06-05T08:31:21.262Z,19.44
2018-06-05T08:32:21.245Z,19.53
2018-06-05T08:33:21.239Z,19.49
2018-06-05T08:34:21.223Z,19.53
2018-06-05T08:35:21.209Z,19.45
2018-06-05T08:36:21.193Z,19.49
2018-06-05T08:37:21.192Z,19.50
2018-06-05T08:38:21.186Z,19.50
2018-06-05T08:39:21.163Z,19.52
2018-06-05T08:40:21.156Z,19.50
2018-06-05T08:41:21.142Z,19.52
2018-06-05T08:42:21.132Z,19.44
2018-06-05T08:43:21.122Z,19.53
2018-06-05T08:44:21.110Z,19.49
2018-06-05T08:45:21.102Z,19.53
2018-06-05T08:46:21.089Z,19.50
2018-06-05T08:47:21.068Z,19.44
2018-06-05T08:48:21.062Z,19.42
2018-06-05T08:49:21.053Z,19.32
2018-06-05T08:50:21.042Z,19.35
2018-06-05T08:51:21.033Z,19.38
2018-06-05T08:52:21.022Z,19.39
2018-06-05T08:53:21.008Z,19.38
2018-06-05T08:54:21.001Z,19.53
2018-06-05T08:55:20.979Z,19.50
2018-06-05T08:56:20.969Z,19.54
2018-06-05T08:57:20.962Z,19.53
2018-06-05T08:58:20.949Z,19.56
2018-06-05T08:59:20.944Z,19.50
2018-06-05T09:00:20.920Z,19.47
2018-06-05T09:01:20.916Z,19.47
2018-06-05T09:02:20.898Z,19.47
2018-06-05T09:03:20.886Z,19.45
2018-06-05T09:04:20.883Z,19.52
2018-06-05T09:05:20.934Z,19.47
2018-06-05T09:06:20.860Z,19.52
2018-06-05T09:07:20.837Z,19.53
2018-06-05T09:08:20.828Z,19.64
2018-06-05T09:09:20.818Z,19.64
2018-06-05T09:10:20.808Z,19.64
2018-06-05T09:11:20.801Z,19.63
2018-06-05T09:12:20.789Z,19.72
2018-06-05T09:13:20.783Z,19.49
2018-06-05T09:14:20.757Z,19.52
2018-06-05T09:15:20.750Z,19.54
2018-06-05T09:16:20.737Z,19.52
2018-06-05T09:17:20.739Z,19.54
2018-06-05T09:18:20.723Z,19.52
2018-06-05T09:19:20.707Z,19.47
2018-06-05T09:20:20.694Z,19.37
2018-06-05T09:21:20.681Z,19.38
2018-06-05T09:22:20.672Z,19.31
2018-06-05T09:23:20.660Z,19.31
2018-06-05T09:24:20.648Z,19.23
2018-06-05T09:25:20.638Z,19.17
2018-06-05T09:26:20.629Z,19.07
2018-06-05T09:27:20.613Z,18.94
2018-06-05T09:28:20.603Z,18.85
2018-06-05T09:29:20.600Z,18.88
2018-06-05T09:30:20.593Z,18.96
2018-06-05T09:31:20.571Z,19.13
2018-06-05T09:32:20.567Z,19.15
2018-06-05T09:33:20.564Z,19.26
2018-06-05T09:34:20.605Z,19.30
2018-06-05T09:35:20.522Z,19.07
2018-06-05T09:36:20.510Z,19.24
2018-06-05T09:37:20.497Z,19.27
2018-06-05T09:38:20.487Z,19.24
2018-06-05T09:39:20.478Z,19.13
2018-06-05T09:40:20.469Z,19.09
2018-06-05T09:41:20.466Z,19.19
2018-06-05T09:42:20.452Z,19.17
2018-06-05T09:43:20.426Z,19.34
2018-06-05T09:44:20.421Z,19.31
2018-06-05T09:45:20.407Z,19.37
2018-06-05T09:46:20.400Z,19.37
2018-06-05T09:47:20.388Z,19.49
2018-06-05T09:48:20.374Z,19.49
2018-06-05T09:49:20.368Z,19.63
2018-06-05T09:50:20.351Z,19.71
2018-06-05T09:51:20.342Z,19.77
2018-06-05T09:52:20.376Z,19.84
2018-06-05T09:53:20.323Z,19.86
2018-06-05T09:54:20.310Z,19.90
2018-06-05T09:55:20.297Z,19.89
2018-06-05T09:56:20.291Z,19.93
2018-06-05T09:57:20.274Z,19.92
2018-06-05T09:58:20.416Z,19.97
2018-06-05T09:59:20.264Z,20.07
2018-06-05T10:00:20.233Z,20.08
2018-06-05T10:01:20.233Z,20.08
2018-06-05T10:02:20.221Z,20.12
2018-06-05T10:03:20.204Z,20.05
2018-06-05T10:04:20.194Z,20.17
2018-06-05T10:05:20.184Z,20.18
2018-06-05T10:06:20.183Z,20.07
2018-06-05T10:07:20.160Z,20.08
2018-06-05T10:08:20.147Z,19.82
2018-06-05T10:09:20.139Z,19.78
2018-06-05T10:10:20.129Z,19.50
2018-06-05T10:11:20.125Z,19.54
2018-06-05T10:12:20.208Z,19.52
2018-06-05T10:13:20.097Z,19.57
2018-06-05T10:14:20.147Z,19.54
2018-06-05T10:15:20.070Z,19.63
2018-06-05T10:16:20.064Z,19.64
2018-06-05T10:17:20.052Z,19.68
2018-06-05T10:19:20.026Z,19.78
2018-06-05T10:20:20.048Z,19.78
2018-06-05T10:21:20.000Z,19.86
2018-06-05T10:22:20.050Z,19.93
2018-06-05T10:23:19.987Z,19.96
2018-06-05T10:24:19.978Z,19.99
2018-06-05T10:25:19.966Z,20.07
2018-06-05T10:26:19.949Z,20.15
2018-06-05T10:27:19.933Z,20.18
2018-06-05T10:28:19.930Z,20.19
2018-06-05T10:29:19.917Z,20.25
2018-06-05T10:30:19.902Z,20.25
2018-06-05T10:31:19.891Z,20.12
2018-06-05T10:34:19.864Z,20.22
2018-06-05T10:35:19.849Z,20.15
2018-06-05T10:36:19.837Z,20.14
2018-06-05T10:37:19.831Z,20.19
2018-06-05T10:39:19.804Z,20.23
2018-06-05T10:40:19.800Z,20.17
2018-06-05T10:41:19.787Z,20.15
2018-06-05T10:42:19.774Z,20.19
2018-06-05T10:45:19.743Z,20.50
2018-06-05T10:46:19.731Z,20.53
2018-06-05T10:47:19.720Z,20.58
2018-06-05T10:48:19.755Z,20.64
2018-06-05T10:49:19.697Z,20.61
2018-06-05T10:50:19.688Z,20.71
2018-06-05T10:51:19.682Z,20.49
2018-06-05T10:52:19.672Z,20.52
2018-06-05T10:53:19.655Z,20.65
2018-06-05T10:54:19.646Z,20.74
2018-06-05T10:55:19.637Z,20.75
2018-06-05T10:56:19.625Z,20.83
2018-06-05T10:57:19.618Z,20.89
2018-06-05T11:02:19.558Z,20.17
2018-06-05T11:03:19.554Z,20.12
2018-06-05T11:05:19.583Z,20.34
2018-06-05T11:06:19.529Z,20.49
2018-06-05T11:07:19.507Z,20.50
2018-06-05T11:08:19.500Z,20.74
2018-06-05T11:09:19.494Z,20.73
2018-06-05T11:10:19.477Z,20.90
2018-06-05T11:11:19.464Z,20.97
2018-06-05T11:12:19.458Z,21.03
2018-06-05T11:13:19.452Z,21.11
2018-06-05T11:14:19.481Z,21.16
2018-06-05T11:15:19.430Z,21.22
2018-06-05T11:16:19.417Z,21.29
2018-06-05T11:17:19.407Z,21.30
2018-06-05T11:18:19.419Z,21.44
2018-06-05T11:19:19.440Z,21.41
2018-06-05T11:20:19.371Z,21.41
2018-06-05T11:21:19.358Z,21.44
2018-06-05T11:22:19.360Z,21.53
2018-06-05T11:23:19.343Z,21.45
2018-06-05T11:24:19.331Z,21.56
2018-06-05T11:25:19.328Z,21.59
2018-06-05T11:26:19.316Z,21.53
2018-06-05T11:27:19.304Z,21.58
2018-06-05T11:28:19.290Z,21.48
2018-06-05T11:29:19.290Z,21.48
2018-06-05T11:30:19.273Z,21.37
2018-06-05T11:31:19.266Z,21.38
2018-06-05T11:32:19.250Z,21.37
2018-06-05T11:33:19.239Z,21.28
2018-06-05T11:34:19.233Z,20.97
2018-06-05T11:35:19.224Z,20.93
2018-06-05T11:36:19.208Z,20.93
2018-06-05T11:37:19.203Z,21.00
2018-06-05T11:38:19.189Z,20.90
2018-06-05T11:39:19.181Z,20.80
2018-06-05T11:40:19.173Z,20.86
2018-06-05T11:41:19.167Z,21.04
2018-06-05T11:42:19.147Z,21.14
2018-06-05T11:43:19.138Z,21.22
2018-06-05T11:44:19.132Z,21.37
2018-06-05T11:45:19.122Z,21.47
2018-06-05T11:46:19.112Z,21.51
2018-06-05T11:47:19.103Z,21.51
2018-06-05T11:48:19.088Z,21.58
2018-06-05T11:49:19.081Z,21.50
2018-06-05T11:50:19.068Z,21.65
2018-06-05T11:51:19.058Z,21.62
2018-06-05T11:52:19.051Z,21.63
2018-06-05T11:53:19.042Z,21.75
2018-06-05T11:54:19.112Z,22.00
2018-06-05T11:55:19.020Z,21.96
2018-06-05T11:56:19.014Z,22.16
2018-06-05T11:57:18.998Z,21.94
2018-06-05T11:58:19.009Z,22.00
2018-06-05T11:59:18.978Z,22.07
2018-06-05T12:00:18.978Z,22.38
2018-06-05T12:01:18.965Z,22.48
2018-06-05T12:02:18.958Z,22.62
2018-06-05T12:03:18.942Z,22.62
2018-06-05T12:04:18.989Z,22.73
2018-06-05T12:05:18.933Z,22.81
2018-06-05T12:06:19.066Z,22.83
2018-06-05T12:07:18.908Z,22.80
2018-06-05T12:08:18.940Z,22.85
2018-06-05T12:09:18.891Z,22.85
2018-06-05T12:10:18.908Z,22.66
2018-06-05T12:11:18.867Z,22.62
2018-06-05T12:12:18.908Z,22.64
2018-06-05T12:13:18.853Z,22.56
2018-06-05T12:14:18.843Z,22.59
2018-06-05T12:15:18.828Z,22.58
2018-06-05T12:16:18.875Z,22.59
2018-06-05T12:17:18.808Z,22.71
2018-06-05T12:18:18.807Z,22.73
2018-06-05T12:19:18.797Z,22.80
2018-06-05T12:20:18.797Z,22.83
2018-06-05T12:21:18.778Z,22.81
2018-06-05T12:22:18.769Z,22.68
2018-06-05T12:23:18.764Z,22.76
2018-06-05T12:24:18.749Z,22.81
2018-06-05T12:25:18.742Z,22.73
2018-06-05T12:26:18.733Z,22.61
2018-06-05T12:27:18.720Z,22.64
2018-06-05T12:28:18.717Z,22.43
2018-06-05T12:29:18.752Z,22.43
2018-06-05T12:30:18.703Z,22.44
2018-06-05T12:31:18.682Z,22.52
2018-06-05T12:32:18.682Z,22.43
2018-06-05T12:33:18.672Z,22.23
2018-06-05T12:34:18.657Z,22.21
2018-06-05T12:35:18.643Z,22.21
2018-06-05T12:36:18.641Z,22.11
2018-06-05T12:37:18.628Z,22.13
2018-06-05T12:38:18.626Z,22.09
2018-06-05T12:39:18.608Z,22.04
2018-06-05T12:40:18.601Z,21.96
2018-06-05T12:41:18.592Z,21.90
2018-06-05T12:42:18.584Z,21.94
2018-06-05T12:43:18.570Z,21.96
2018-06-05T12:44:18.568Z,22.07
2018-06-05T12:45:18.563Z,22.06
2018-06-05T12:46:18.543Z,22.03
2018-06-05T12:47:18.540Z,21.96
2018-06-05T12:48:18.528Z,22.00
2018-06-05T12:49:18.518Z,22.00
2018-06-05T12:50:18.512Z,22.03
2018-06-05T12:51:18.500Z,22.07
2018-06-05T12:52:18.487Z,22.04
2018-06-05T12:53:18.483Z,22.00
2018-06-05T12:54:18.467Z,21.96
2018-06-05T12:55:18.463Z,22.01
2018-06-05T12:56:18.450Z,22.12
2018-06-05T12:57:18.441Z,22.18
2018-06-05T12:58:18.429Z,22.16
2018-06-05T12:59:18.421Z,22.18
2018-06-05T13:00:18.412Z,22.15
2018-06-05T13:01:18.403Z,22.09
2018-06-05T13:02:18.387Z,22.07
2018-06-05T13:03:18.381Z,22.00
2018-06-05T13:04:18.367Z,22.12